sensor_id;sensor_type;location;lat;lon;timestamp;temperature;humidity
15947;DHT22;8072;52.554;7.966;2024-03-02T00:00:07;6.40;99.90
15947;DHT22;8072;52.554;7.966;2024-03-02T00:02:44;6.30;99.90
15947;DHT22;8072;52.554;7.966;2024-03-02T00:05:12;6.30;99.90
15947;DHT22;8072;52.554;7.966;2024-03-02T00:07:41;6.30;99.90
15947;DHT22;8072;52.554;7.966;2024-03-02T00:10:13;6.30;99.90
15947;DHT22;8072;52.554;7.966;2024-03-02T00:12:40;6.30;99.90
15947;DHT22;8072;52.554;7.966;2024-03-02T00:17:56;6.30;99.90
15947;DHT22;8072;52.554;7.966;2024-03-02T00:20:22;6.30;99.90
15947;DHT22;8072;52.554;7.966;2024-03-02T00:22:51;6.30;99.90
15947;DHT22;8072;52.554;7.966;2024-03-02T00:25:20;6.30;99.90
15947;DHT22;8072;52.554;7.966;2024-03-02T00:27:49;6.30;99.90
15947;DHT22;8072;52.554;7.966;2024-03-02T00:33:10;6.30;99.90
15947;DHT22;8072;52.554;7.966;2024-03-02T00:35:36;6.30;99.90
15947;DHT22;8072;52.554;7.966;2024-03-02T00:38:08;6.30;99.90
15947;DHT22;8072;52.554;7.966;2024-03-02T00:40:34;6.20;99.90
15947;DHT22;8072;52.554;7.966;2024-03-02T00:43:00;6.20;99.90
15947;DHT22;8072;52.554;7.966;2024-03-02T00:45:26;6.20;99.90
15947;DHT22;8072;52.554;7.966;2024-03-02T00:47:53;6.20;99.90
15947;DHT22;8072;52.554;7.966;2024-03-02T00:50:19;6.10;99.90
15947;DHT22;8072;52.554;7.966;2024-03-02T00:52:46;6.10;99.90
15947;DHT22;8072;52.554;7.966;2024-03-02T00:55:14;6.20;99.90
15947;DHT22;8072;52.554;7.966;2024-03-02T00:57:41;6.10;99.90
15947;DHT22;8072;52.554;7.966;2024-03-02T01:00:10;6.10;99.90
15947;DHT22;8072;52.554;7.966;2024-03-02T01:02:37;6.10;99.90
15947;DHT22;8072;52.554;7.966;2024-03-02T01:05:03;6.10;99.90
15947;DHT22;8072;52.554;7.966;2024-03-02T01:07:30;6.10;99.90
15947;DHT22;8072;52.554;7.966;2024-03-02T01:09:56;6.10;99.90
15947;DHT22;8072;52.554;7.966;2024-03-02T01:12:22;6.10;99.90
15947;DHT22;8072;52.554;7.966;2024-03-02T01:14:48;6.10;99.90
15947;DHT22;8072;52.554;7.966;2024-03-02T01:17:13;6.00;99.90
15947;DHT22;8072;52.554;7.966;2024-03-02T01:19:41;6.00;99.90
15947;DHT22;8072;52.554;7.966;2024-03-02T01:22:07;6.00;99.90
15947;DHT22;8072;52.554;7.966;2024-03-02T01:24:33;6.00;99.90
15947;DHT22;8072;52.554;7.966;2024-03-02T01:26:59;6.00;99.90
15947;DHT22;8072;52.554;7.966;2024-03-02T01:29:25;6.00;99.90
15947;DHT22;8072;52.554;7.966;2024-03-02T01:31:51;5.90;99.90
15947;DHT22;8072;52.554;7.966;2024-03-02T01:34:19;6.00;99.90
15947;DHT22;8072;52.554;7.966;2024-03-02T01:36:44;6.00;99.90
15947;DHT22;8072;52.554;7.966;2024-03-02T01:39:10;5.90;99.90
15947;DHT22;8072;52.554;7.966;2024-03-02T01:41:36;6.00;99.90
15947;DHT22;8072;52.554;7.966;2024-03-02T01:44:02;6.00;99.90
15947;DHT22;8072;52.554;7.966;2024-03-02T01:46:28;5.90;99.90
15947;DHT22;8072;52.554;7.966;2024-03-02T01:48:54;5.90;99.90
15947;DHT22;8072;52.554;7.966;2024-03-02T01:51:20;5.90;99.90
15947;DHT22;8072;52.554;7.966;2024-03-02T01:53:46;5.90;99.90
15947;DHT22;8072;52.554;7.966;2024-03-02T01:56:11;5.90;99.90
15947;DHT22;8072;52.554;7.966;2024-03-02T01:58:37;5.90;99.90
15947;DHT22;8072;52.554;7.966;2024-03-02T02:01:03;5.80;99.90
15947;DHT22;8072;52.554;7.966;2024-03-02T02:03:30;5.80;99.90
15947;DHT22;8072;52.554;7.966;2024-03-02T02:05:56;5.80;99.90
15947;DHT22;8072;52.554;7.966;2024-03-02T02:08:21;5.70;99.90
15947;DHT22;8072;52.554;7.966;2024-03-02T02:10:47;5.70;99.90
15947;DHT22;8072;52.554;7.966;2024-03-02T02:13:13;5.60;99.90
15947;DHT22;8072;52.554;7.966;2024-03-02T02:15:39;5.70;99.90
15947;DHT22;8072;52.554;7.966;2024-03-02T02:18:06;5.60;99.90
15947;DHT22;8072;52.554;7.966;2024-03-02T02:20:32;5.60;99.90
15947;DHT22;8072;52.554;7.966;2024-03-02T02:23:02;5.60;99.90
15947;DHT22;8072;52.554;7.966;2024-03-02T02:25:28;5.60;99.90
15947;DHT22;8072;52.554;7.966;2024-03-02T02:27:55;5.60;99.90
15947;DHT22;8072;52.554;7.966;2024-03-02T02:30:26;5.60;99.90
15947;DHT22;8072;52.554;7.966;2024-03-02T02:32:52;5.60;99.90
15947;DHT22;8072;52.554;7.966;2024-03-02T02:35:18;5.60;99.90
15947;DHT22;8072;52.554;7.966;2024-03-02T02:37:46;5.60;99.90
15947;DHT22;8072;52.554;7.966;2024-03-02T02:40:12;5.60;99.90
15947;DHT22;8072;52.554;7.966;2024-03-02T02:42:39;5.50;99.90
15947;DHT22;8072;52.554;7.966;2024-03-02T02:45:06;5.50;99.90
15947;DHT22;8072;52.554;7.966;2024-03-02T02:47:32;5.50;99.90
15947;DHT22;8072;52.554;7.966;2024-03-02T02:50:02;5.50;99.90
15947;DHT22;8072;52.554;7.966;2024-03-02T02:52:35;5.50;99.90
15947;DHT22;8072;52.554;7.966;2024-03-02T02:55:06;5.50;99.90
15947;DHT22;8072;52.554;7.966;2024-03-02T02:57:33;5.50;99.90
15947;DHT22;8072;52.554;7.966;2024-03-02T03:00:09;5.40;99.90
15947;DHT22;8072;52.554;7.966;2024-03-02T03:02:40;5.40;99.90
15947;DHT22;8072;52.554;7.966;2024-03-02T03:05:08;5.40;99.90
15947;DHT22;8072;52.554;7.966;2024-03-02T03:07:34;5.40;99.90
15947;DHT22;8072;52.554;7.966;2024-03-02T03:10:02;5.40;99.90
15947;DHT22;8072;52.554;7.966;2024-03-02T03:12:33;5.40;99.90
15947;DHT22;8072;52.554;7.966;2024-03-02T03:14:59;5.40;99.90
15947;DHT22;8072;52.554;7.966;2024-03-02T03:17:26;5.30;99.90
15947;DHT22;8072;52.554;7.966;2024-03-02T03:19:55;5.30;99.90
15947;DHT22;8072;52.554;7.966;2024-03-02T03:22:21;5.30;99.90
15947;DHT22;8072;52.554;7.966;2024-03-02T03:24:46;5.30;99.90
15947;DHT22;8072;52.554;7.966;2024-03-02T03:27:12;5.30;99.90
15947;DHT22;8072;52.554;7.966;2024-03-02T03:29:38;5.30;99.90
15947;DHT22;8072;52.554;7.966;2024-03-02T03:32:04;5.40;99.90
15947;DHT22;8072;52.554;7.966;2024-03-02T03:34:34;5.40;99.90
15947;DHT22;8072;52.554;7.966;2024-03-02T03:37:00;5.40;99.90
15947;DHT22;8072;52.554;7.966;2024-03-02T03:39:26;5.40;99.90
15947;DHT22;8072;52.554;7.966;2024-03-02T03:41:51;5.30;99.90
15947;DHT22;8072;52.554;7.966;2024-03-02T03:44:18;5.30;99.90
15947;DHT22;8072;52.554;7.966;2024-03-02T03:46:44;5.30;99.90
15947;DHT22;8072;52.554;7.966;2024-03-02T03:49:10;5.30;99.90
15947;DHT22;8072;52.554;7.966;2024-03-02T03:51:36;5.30;99.90
15947;DHT22;8072;52.554;7.966;2024-03-02T03:54:02;5.20;99.90
15947;DHT22;8072;52.554;7.966;2024-03-02T03:56:29;5.20;99.90
15947;DHT22;8072;52.554;7.966;2024-03-02T03:58:55;5.20;99.90
15947;DHT22;8072;52.554;7.966;2024-03-02T04:01:21;5.20;99.90
15947;DHT22;8072;52.554;7.966;2024-03-02T04:03:48;5.20;99.90
15947;DHT22;8072;52.554;7.966;2024-03-02T04:06:14;5.10;99.90
15947;DHT22;8072;52.554;7.966;2024-03-02T04:08:42;5.10;99.90
15947;DHT22;8072;52.554;7.966;2024-03-02T04:11:08;5.10;99.90
15947;DHT22;8072;52.554;7.966;2024-03-02T04:13:44;5.10;99.90
15947;DHT22;8072;52.554;7.966;2024-03-02T04:16:10;5.00;99.90
15947;DHT22;8072;52.554;7.966;2024-03-02T04:18:35;5.00;99.90
15947;DHT22;8072;52.554;7.966;2024-03-02T04:21:02;5.00;99.90
15947;DHT22;8072;52.554;7.966;2024-03-02T04:23:31;4.90;99.90
15947;DHT22;8072;52.554;7.966;2024-03-02T04:25:56;4.90;99.90
15947;DHT22;8072;52.554;7.966;2024-03-02T04:28:22;4.90;99.90
15947;DHT22;8072;52.554;7.966;2024-03-02T04:30:48;4.90;99.90
15947;DHT22;8072;52.554;7.966;2024-03-02T04:33:14;4.80;99.90
15947;DHT22;8072;52.554;7.966;2024-03-02T04:35:40;4.80;99.90
15947;DHT22;8072;52.554;7.966;2024-03-02T04:38:08;4.70;99.90
15947;DHT22;8072;52.554;7.966;2024-03-02T04:40:34;4.70;99.90
15947;DHT22;8072;52.554;7.966;2024-03-02T04:43:00;4.70;99.90
15947;DHT22;8072;52.554;7.966;2024-03-02T04:45:26;4.70;99.90
15947;DHT22;8072;52.554;7.966;2024-03-02T04:47:51;4.70;99.90
15947;DHT22;8072;52.554;7.966;2024-03-02T04:50:17;4.60;99.90
15947;DHT22;8072;52.554;7.966;2024-03-02T04:52:43;4.60;99.90
15947;DHT22;8072;52.554;7.966;2024-03-02T04:55:10;4.60;99.90
15947;DHT22;8072;52.554;7.966;2024-03-02T04:57:55;4.50;99.90
15947;DHT22;8072;52.554;7.966;2024-03-02T05:00:22;4.50;99.90
15947;DHT22;8072;52.554;7.966;2024-03-02T05:02:47;4.50;99.90
15947;DHT22;8072;52.554;7.966;2024-03-02T05:05:13;4.50;99.90
15947;DHT22;8072;52.554;7.966;2024-03-02T05:07:41;4.50;99.90
15947;DHT22;8072;52.554;7.966;2024-03-02T05:10:08;4.50;99.90
15947;DHT22;8072;52.554;7.966;2024-03-02T05:12:34;4.50;99.90
15947;DHT22;8072;52.554;7.966;2024-03-02T05:15:22;4.40;99.90
15947;DHT22;8072;52.554;7.966;2024-03-02T05:17:48;4.40;99.90
15947;DHT22;8072;52.554;7.966;2024-03-02T05:20:14;4.40;99.90
15947;DHT22;8072;52.554;7.966;2024-03-02T05:22:40;4.30;99.90
15947;DHT22;8072;52.554;7.966;2024-03-02T05:25:06;4.40;99.90
15947;DHT22;8072;52.554;7.966;2024-03-02T05:27:32;4.30;99.90
15947;DHT22;8072;52.554;7.966;2024-03-02T05:29:59;4.30;99.90
15947;DHT22;8072;52.554;7.966;2024-03-02T05:32:25;4.30;99.90
15947;DHT22;8072;52.554;7.966;2024-03-02T05:34:51;4.20;99.90
15947;DHT22;8072;52.554;7.966;2024-03-02T05:37:17;4.20;99.90
15947;DHT22;8072;52.554;7.966;2024-03-02T05:39:43;4.20;99.90
15947;DHT22;8072;52.554;7.966;2024-03-02T05:42:11;4.20;99.90
15947;DHT22;8072;52.554;7.966;2024-03-02T05:44:37;4.20;99.90
15947;DHT22;8072;52.554;7.966;2024-03-02T05:47:03;4.20;99.90
15947;DHT22;8072;52.554;7.966;2024-03-02T05:49:29;4.20;99.90
15947;DHT22;8072;52.554;7.966;2024-03-02T05:51:55;4.10;99.90
15947;DHT22;8072;52.554;7.966;2024-03-02T05:54:21;4.10;99.90
15947;DHT22;8072;52.554;7.966;2024-03-02T05:56:47;4.10;99.90
15947;DHT22;8072;52.554;7.966;2024-03-02T05:59:13;4.10;99.90
15947;DHT22;8072;52.554;7.966;2024-03-02T06:01:43;4.10;99.90
15947;DHT22;8072;52.554;7.966;2024-03-02T06:04:09;4.00;99.90
15947;DHT22;8072;52.554;7.966;2024-03-02T06:06:36;4.00;99.90
15947;DHT22;8072;52.554;7.966;2024-03-02T06:09:03;4.00;99.90
15947;DHT22;8072;52.554;7.966;2024-03-02T06:11:38;3.90;99.90
15947;DHT22;8072;52.554;7.966;2024-03-02T06:14:05;3.90;99.90
15947;DHT22;8072;52.554;7.966;2024-03-02T06:16:31;3.90;99.90
15947;DHT22;8072;52.554;7.966;2024-03-02T06:18:57;3.90;99.90
15947;DHT22;8072;52.554;7.966;2024-03-02T06:21:24;3.90;99.90
15947;DHT22;8072;52.554;7.966;2024-03-02T06:23:50;3.90;99.90
15947;DHT22;8072;52.554;7.966;2024-03-02T06:26:16;3.90;99.90
15947;DHT22;8072;52.554;7.966;2024-03-02T06:28:42;3.90;99.90
15947;DHT22;8072;52.554;7.966;2024-03-02T06:31:08;3.90;99.90
15947;DHT22;8072;52.554;7.966;2024-03-02T06:33:34;3.90;99.90
15947;DHT22;8072;52.554;7.966;2024-03-02T06:36:00;3.80;99.90
15947;DHT22;8072;52.554;7.966;2024-03-02T06:38:26;3.80;99.90
15947;DHT22;8072;52.554;7.966;2024-03-02T06:40:52;3.80;99.90
15947;DHT22;8072;52.554;7.966;2024-03-02T06:43:17;3.80;99.90
15947;DHT22;8072;52.554;7.966;2024-03-02T06:45:43;3.80;99.90
15947;DHT22;8072;52.554;7.966;2024-03-02T06:48:09;3.80;99.90
15947;DHT22;8072;52.554;7.966;2024-03-02T06:50:35;3.80;99.90
15947;DHT22;8072;52.554;7.966;2024-03-02T06:53:01;3.90;99.90
15947;DHT22;8072;52.554;7.966;2024-03-02T06:55:28;3.90;99.90
15947;DHT22;8072;52.554;7.966;2024-03-02T06:57:53;3.90;99.90
15947;DHT22;8072;52.554;7.966;2024-03-02T07:00:19;3.90;99.90
15947;DHT22;8072;52.554;7.966;2024-03-02T07:02:46;3.90;99.90
15947;DHT22;8072;52.554;7.966;2024-03-02T07:05:12;3.90;99.90
15947;DHT22;8072;52.554;7.966;2024-03-02T07:07:38;4.00;99.90
15947;DHT22;8072;52.554;7.966;2024-03-02T07:10:04;4.00;99.90
15947;DHT22;8072;52.554;7.966;2024-03-02T07:12:30;4.00;99.90
15947;DHT22;8072;52.554;7.966;2024-03-02T07:14:57;4.00;99.90
15947;DHT22;8072;52.554;7.966;2024-03-02T07:17:29;4.00;99.90
15947;DHT22;8072;52.554;7.966;2024-03-02T07:19:55;4.10;99.90
15947;DHT22;8072;52.554;7.966;2024-03-02T07:22:21;4.20;99.90
15947;DHT22;8072;52.554;7.966;2024-03-02T07:24:47;4.10;99.90
15947;DHT22;8072;52.554;7.966;2024-03-02T07:27:13;4.20;99.90
15947;DHT22;8072;52.554;7.966;2024-03-02T07:29:41;4.20;99.90
15947;DHT22;8072;52.554;7.966;2024-03-02T07:32:07;4.20;99.90
15947;DHT22;8072;52.554;7.966;2024-03-02T07:34:33;4.30;99.90
15947;DHT22;8072;52.554;7.966;2024-03-02T07:36:59;4.30;99.90
15947;DHT22;8072;52.554;7.966;2024-03-02T07:39:25;4.40;99.90
15947;DHT22;8072;52.554;7.966;2024-03-02T07:41:51;4.50;99.90
15947;DHT22;8072;52.554;7.966;2024-03-02T07:44:17;4.60;99.90
15947;DHT22;8072;52.554;7.966;2024-03-02T07:46:46;4.70;99.90
15947;DHT22;8072;52.554;7.966;2024-03-02T07:49:12;4.80;99.90
15947;DHT22;8072;52.554;7.966;2024-03-02T07:51:41;5.00;99.90
15947;DHT22;8072;52.554;7.966;2024-03-02T07:54:07;5.10;99.90
15947;DHT22;8072;52.554;7.966;2024-03-02T07:56:33;5.20;99.90
15947;DHT22;8072;52.554;7.966;2024-03-02T07:59:00;5.30;99.90
15947;DHT22;8072;52.554;7.966;2024-03-02T08:01:31;5.40;99.90
15947;DHT22;8072;52.554;7.966;2024-03-02T08:04:01;5.60;99.90
15947;DHT22;8072;52.554;7.966;2024-03-02T08:06:28;5.70;99.90
15947;DHT22;8072;52.554;7.966;2024-03-02T08:08:56;5.80;99.90
15947;DHT22;8072;52.554;7.966;2024-03-02T08:11:22;5.90;99.90
15947;DHT22;8072;52.554;7.966;2024-03-02T08:13:49;6.10;99.90
15947;DHT22;8072;52.554;7.966;2024-03-02T08:16:18;6.20;99.90
15947;DHT22;8072;52.554;7.966;2024-03-02T08:18:50;6.30;99.90
15947;DHT22;8072;52.554;7.966;2024-03-02T08:21:16;6.50;99.90
15947;DHT22;8072;52.554;7.966;2024-03-02T08:23:43;6.60;99.90
15947;DHT22;8072;52.554;7.966;2024-03-02T08:26:09;6.70;99.90
15947;DHT22;8072;52.554;7.966;2024-03-02T08:28:35;6.70;99.90
15947;DHT22;8072;52.554;7.966;2024-03-02T08:31:06;6.80;99.90
15947;DHT22;8072;52.554;7.966;2024-03-02T08:33:32;6.90;99.90
15947;DHT22;8072;52.554;7.966;2024-03-02T08:35:58;7.00;99.90
15947;DHT22;8072;52.554;7.966;2024-03-02T08:38:24;7.20;99.90
15947;DHT22;8072;52.554;7.966;2024-03-02T08:40:50;7.40;99.90
15947;DHT22;8072;52.554;7.966;2024-03-02T08:43:17;7.70;99.90
15947;DHT22;8072;52.554;7.966;2024-03-02T08:45:43;7.90;99.90
15947;DHT22;8072;52.554;7.966;2024-03-02T08:48:09;8.00;99.90
15947;DHT22;8072;52.554;7.966;2024-03-02T08:50:35;8.20;99.90
15947;DHT22;8072;52.554;7.966;2024-03-02T08:53:02;8.30;99.90
15947;DHT22;8072;52.554;7.966;2024-03-02T08:55:28;8.40;99.90
15947;DHT22;8072;52.554;7.966;2024-03-02T08:57:54;8.50;99.90
15947;DHT22;8072;52.554;7.966;2024-03-02T09:00:20;8.50;99.90
15947;DHT22;8072;52.554;7.966;2024-03-02T09:02:46;8.60;99.90
15947;DHT22;8072;52.554;7.966;2024-03-02T09:05:12;8.60;99.90
15947;DHT22;8072;52.554;7.966;2024-03-02T09:07:38;8.60;99.90
15947;DHT22;8072;52.554;7.966;2024-03-02T09:10:07;8.60;99.90
15947;DHT22;8072;52.554;7.966;2024-03-02T09:12:33;8.70;99.90
15947;DHT22;8072;52.554;7.966;2024-03-02T09:15:01;8.80;99.90
15947;DHT22;8072;52.554;7.966;2024-03-02T09:17:27;8.80;99.90
15947;DHT22;8072;52.554;7.966;2024-03-02T09:19:53;9.00;99.90
15947;DHT22;8072;52.554;7.966;2024-03-02T09:22:19;9.10;99.90
15947;DHT22;8072;52.554;7.966;2024-03-02T09:24:45;9.20;99.90
15947;DHT22;8072;52.554;7.966;2024-03-02T09:27:11;9.30;99.90
15947;DHT22;8072;52.554;7.966;2024-03-02T09:29:37;9.50;99.90
15947;DHT22;8072;52.554;7.966;2024-03-02T09:32:05;9.60;99.90
15947;DHT22;8072;52.554;7.966;2024-03-02T09:34:32;9.70;99.90
15947;DHT22;8072;52.554;7.966;2024-03-02T09:36:57;9.70;99.90
15947;DHT22;8072;52.554;7.966;2024-03-02T09:39:24;9.90;99.90
15947;DHT22;8072;52.554;7.966;2024-03-02T09:41:51;10.00;99.90
15947;DHT22;8072;52.554;7.966;2024-03-02T09:44:17;10.10;99.90
15947;DHT22;8072;52.554;7.966;2024-03-02T09:46:43;10.20;99.90
15947;DHT22;8072;52.554;7.966;2024-03-02T09:49:12;10.30;99.90
15947;DHT22;8072;52.554;7.966;2024-03-02T09:51:39;10.40;99.90
15947;DHT22;8072;52.554;7.966;2024-03-02T09:54:07;10.60;99.90
15947;DHT22;8072;52.554;7.966;2024-03-02T09:56:33;10.70;99.90
15947;DHT22;8072;52.554;7.966;2024-03-02T09:58:59;10.90;99.90
15947;DHT22;8072;52.554;7.966;2024-03-02T10:01:25;11.00;99.90
15947;DHT22;8072;52.554;7.966;2024-03-02T10:03:52;11.10;99.90
15947;DHT22;8072;52.554;7.966;2024-03-02T10:06:26;11.10;99.90
15947;DHT22;8072;52.554;7.966;2024-03-02T10:08:53;11.20;99.90
15947;DHT22;8072;52.554;7.966;2024-03-02T10:11:26;11.30;99.90
15947;DHT22;8072;52.554;7.966;2024-03-02T10:14:09;11.40;99.90
15947;DHT22;8072;52.554;7.966;2024-03-02T10:16:41;11.50;99.90
15947;DHT22;8072;52.554;7.966;2024-03-02T10:19:25;11.50;99.90
15947;DHT22;8072;52.554;7.966;2024-03-02T10:21:53;11.50;94.30
15947;DHT22;8072;52.554;7.966;2024-03-02T10:24:21;11.60;99.90
15947;DHT22;8072;52.554;7.966;2024-03-02T10:26:47;11.60;95.70
15947;DHT22;8072;52.554;7.966;2024-03-02T10:29:13;11.70;99.90
15947;DHT22;8072;52.554;7.966;2024-03-02T10:31:43;11.80;94.10
15947;DHT22;8072;52.554;7.966;2024-03-02T10:34:10;11.80;85.40
15947;DHT22;8072;52.554;7.966;2024-03-02T10:36:37;11.90;92.20
15947;DHT22;8072;52.554;7.966;2024-03-02T10:39:07;11.90;84.20
15947;DHT22;8072;52.554;7.966;2024-03-02T10:41:34;12.00;97.00
15947;DHT22;8072;52.554;7.966;2024-03-02T10:44:08;12.00;48.20
15947;DHT22;8072;52.554;7.966;2024-03-02T10:46:37;12.00;55.00
15947;DHT22;8072;52.554;7.966;2024-03-02T10:49:05;12.10;60.60
15947;DHT22;8072;52.554;7.966;2024-03-02T10:51:33;12.10;44.40
15947;DHT22;8072;52.554;7.966;2024-03-02T10:53:59;12.20;52.30
15947;DHT22;8072;52.554;7.966;2024-03-02T10:56:33;12.30;57.60
15947;DHT22;8072;52.554;7.966;2024-03-02T10:59:14;12.20;27.00
15947;DHT22;8072;52.554;7.966;2024-03-02T11:01:43;12.30;29.20
15947;DHT22;8072;52.554;7.966;2024-03-02T11:04:12;12.30;21.90
15947;DHT22;8072;52.554;7.966;2024-03-02T11:06:42;12.40;30.20
15947;DHT22;8072;52.554;7.966;2024-03-02T11:09:12;12.50;38.10
15947;DHT22;8072;52.554;7.966;2024-03-02T11:11:42;12.60;25.70
15947;DHT22;8072;52.554;7.966;2024-03-02T11:14:14;12.70;13.90
15947;DHT22;8072;52.554;7.966;2024-03-02T11:16:41;12.80;4.70
15947;DHT22;8072;52.554;7.966;2024-03-02T11:19:13;12.90;25.40
15947;DHT22;8072;52.554;7.966;2024-03-02T11:21:41;12.90;1.00
15947;DHT22;8072;52.554;7.966;2024-03-02T11:26:53;13.10;6.20
15947;DHT22;8072;52.554;7.966;2024-03-02T11:32:05;13.20;1.00
15947;DHT22;8072;52.554;7.966;2024-03-02T11:34:33;13.20;1.00
15947;DHT22;8072;52.554;7.966;2024-03-02T11:37:00;13.30;1.00
15947;DHT22;8072;52.554;7.966;2024-03-02T11:39:27;13.30;12.80
15947;DHT22;8072;52.554;7.966;2024-03-02T11:41:53;13.30;5.30
15947;DHT22;8072;52.554;7.966;2024-03-02T11:44:19;13.30;32.60
15947;DHT22;8072;52.554;7.966;2024-03-02T11:47:08;13.50;6.10
15947;DHT22;8072;52.554;7.966;2024-03-02T11:49:43;13.60;7.00
15947;DHT22;8072;52.554;7.966;2024-03-02T11:52:10;13.60;6.90
15947;DHT22;8072;52.554;7.966;2024-03-02T11:54:41;13.60;1.00
15947;DHT22;8072;52.554;7.966;2024-03-02T11:57:18;13.70;1.00
15947;DHT22;8072;52.554;7.966;2024-03-02T11:59:48;13.80;1.00
15947;DHT22;8072;52.554;7.966;2024-03-02T12:02:21;13.80;1.00
15947;DHT22;8072;52.554;7.966;2024-03-02T12:04:48;13.90;6.30
15947;DHT22;8072;52.554;7.966;2024-03-02T12:07:22;14.10;1.00
15947;DHT22;8072;52.554;7.966;2024-03-02T12:09:49;14.10;1.00
15947;DHT22;8072;52.554;7.966;2024-03-02T12:12:24;14.10;1.00
15947;DHT22;8072;52.554;7.966;2024-03-02T12:14:52;14.10;1.00
15947;DHT22;8072;52.554;7.966;2024-03-02T12:17:19;14.10;1.00
15947;DHT22;8072;52.554;7.966;2024-03-02T12:19:44;14.20;1.00
15947;DHT22;8072;52.554;7.966;2024-03-02T12:22:11;14.30;1.00
15947;DHT22;8072;52.554;7.966;2024-03-02T12:24:38;14.30;1.00
15947;DHT22;8072;52.554;7.966;2024-03-02T12:27:05;14.30;1.00
15947;DHT22;8072;52.554;7.966;2024-03-02T12:29:31;14.30;1.00
15947;DHT22;8072;52.554;7.966;2024-03-02T12:31:57;14.30;1.00
15947;DHT22;8072;52.554;7.966;2024-03-02T12:34:22;14.40;1.00
15947;DHT22;8072;52.554;7.966;2024-03-02T12:36:49;14.50;1.00
15947;DHT22;8072;52.554;7.966;2024-03-02T12:39:18;14.60;1.00
15947;DHT22;8072;52.554;7.966;2024-03-02T12:41:46;14.80;1.00
15947;DHT22;8072;52.554;7.966;2024-03-02T12:44:12;14.90;1.00
15947;DHT22;8072;52.554;7.966;2024-03-02T12:46:37;14.90;1.00
15947;DHT22;8072;52.554;7.966;2024-03-02T12:49:11;15.00;1.00
15947;DHT22;8072;52.554;7.966;2024-03-02T12:51:41;14.90;1.00
15947;DHT22;8072;52.554;7.966;2024-03-02T12:54:08;14.80;1.00
15947;DHT22;8072;52.554;7.966;2024-03-02T12:56:35;14.80;1.00
15947;DHT22;8072;52.554;7.966;2024-03-02T12:59:01;14.80;1.00
15947;DHT22;8072;52.554;7.966;2024-03-02T13:01:27;14.90;1.00
15947;DHT22;8072;52.554;7.966;2024-03-02T13:03:54;14.80;1.00
15947;DHT22;8072;52.554;7.966;2024-03-02T13:06:23;14.90;1.00
15947;DHT22;8072;52.554;7.966;2024-03-02T13:08:50;15.00;1.00
15947;DHT22;8072;52.554;7.966;2024-03-02T13:11:16;15.10;1.00
15947;DHT22;8072;52.554;7.966;2024-03-02T13:13:42;15.20;1.00
15947;DHT22;8072;52.554;7.966;2024-03-02T13:16:09;15.10;1.00
15947;DHT22;8072;52.554;7.966;2024-03-02T13:18:39;15.10;1.00
15947;DHT22;8072;52.554;7.966;2024-03-02T13:21:09;15.10;1.00
15947;DHT22;8072;52.554;7.966;2024-03-02T13:23:35;15.20;1.00
15947;DHT22;8072;52.554;7.966;2024-03-02T13:26:01;15.30;1.00
15947;DHT22;8072;52.554;7.966;2024-03-02T13:28:27;15.30;1.00
15947;DHT22;8072;52.554;7.966;2024-03-02T13:30:53;15.30;1.00
15947;DHT22;8072;52.554;7.966;2024-03-02T13:33:22;15.20;1.00
15947;DHT22;8072;52.554;7.966;2024-03-02T13:35:51;15.30;1.00
15947;DHT22;8072;52.554;7.966;2024-03-02T13:38:21;15.40;1.00
15947;DHT22;8072;52.554;7.966;2024-03-02T13:40:48;15.40;1.00
15947;DHT22;8072;52.554;7.966;2024-03-02T13:43:17;15.50;1.00
15947;DHT22;8072;52.554;7.966;2024-03-02T13:45:44;15.60;1.00
15947;DHT22;8072;52.554;7.966;2024-03-02T13:48:09;15.70;1.00
15947;DHT22;8072;52.554;7.966;2024-03-02T13:50:35;15.80;1.00
15947;DHT22;8072;52.554;7.966;2024-03-02T13:53:01;16.00;1.00
15947;DHT22;8072;52.554;7.966;2024-03-02T13:55:28;16.00;1.00
15947;DHT22;8072;52.554;7.966;2024-03-02T13:57:54;16.00;1.00
15947;DHT22;8072;52.554;7.966;2024-03-02T14:00:20;16.10;1.00
15947;DHT22;8072;52.554;7.966;2024-03-02T14:02:46;16.20;1.00
15947;DHT22;8072;52.554;7.966;2024-03-02T14:05:12;16.00;1.00
15947;DHT22;8072;52.554;7.966;2024-03-02T14:07:39;16.00;1.00
15947;DHT22;8072;52.554;7.966;2024-03-02T14:10:07;16.10;1.00
15947;DHT22;8072;52.554;7.966;2024-03-02T14:12:33;16.00;1.00
15947;DHT22;8072;52.554;7.966;2024-03-02T14:14:59;16.10;1.00
15947;DHT22;8072;52.554;7.966;2024-03-02T14:17:28;16.20;1.00
15947;DHT22;8072;52.554;7.966;2024-03-02T14:19:54;16.10;1.00
15947;DHT22;8072;52.554;7.966;2024-03-02T14:22:20;16.10;1.00
15947;DHT22;8072;52.554;7.966;2024-03-02T14:24:46;16.00;1.00
15947;DHT22;8072;52.554;7.966;2024-03-02T14:27:14;16.00;1.00
15947;DHT22;8072;52.554;7.966;2024-03-02T14:29:42;16.00;1.00
15947;DHT22;8072;52.554;7.966;2024-03-02T14:32:08;16.00;1.00
15947;DHT22;8072;52.554;7.966;2024-03-02T14:34:36;16.00;1.00
15947;DHT22;8072;52.554;7.966;2024-03-02T14:37:02;16.10;1.00
15947;DHT22;8072;52.554;7.966;2024-03-02T14:39:28;16.20;1.00
15947;DHT22;8072;52.554;7.966;2024-03-02T14:41:54;16.10;1.00
15947;DHT22;8072;52.554;7.966;2024-03-02T14:44:23;16.10;1.00
15947;DHT22;8072;52.554;7.966;2024-03-02T14:46:49;16.10;1.00
15947;DHT22;8072;52.554;7.966;2024-03-02T14:49:16;16.10;1.00
15947;DHT22;8072;52.554;7.966;2024-03-02T14:51:41;16.10;1.00
15947;DHT22;8072;52.554;7.966;2024-03-02T14:54:07;15.90;1.00
15947;DHT22;8072;52.554;7.966;2024-03-02T14:56:33;15.70;1.00
15947;DHT22;8072;52.554;7.966;2024-03-02T14:58:59;15.50;1.00
15947;DHT22;8072;52.554;7.966;2024-03-02T15:01:25;15.30;1.00
15947;DHT22;8072;52.554;7.966;2024-03-02T15:03:51;15.30;1.00
15947;DHT22;8072;52.554;7.966;2024-03-02T15:06:17;15.30;1.00
15947;DHT22;8072;52.554;7.966;2024-03-02T15:08:44;15.30;1.00
15947;DHT22;8072;52.554;7.966;2024-03-02T15:11:12;15.40;1.00
15947;DHT22;8072;52.554;7.966;2024-03-02T15:13:38;15.40;1.00
15947;DHT22;8072;52.554;7.966;2024-03-02T15:16:04;15.40;1.00
15947;DHT22;8072;52.554;7.966;2024-03-02T15:18:30;15.30;1.00
15947;DHT22;8072;52.554;7.966;2024-03-02T15:20:56;15.30;1.00
15947;DHT22;8072;52.554;7.966;2024-03-02T15:23:23;15.30;1.00
15947;DHT22;8072;52.554;7.966;2024-03-02T15:25:51;15.30;1.00
15947;DHT22;8072;52.554;7.966;2024-03-02T15:28:16;15.20;1.00
15947;DHT22;8072;52.554;7.966;2024-03-02T15:30:43;15.20;1.00
15947;DHT22;8072;52.554;7.966;2024-03-02T15:33:09;15.10;1.00
15947;DHT22;8072;52.554;7.966;2024-03-02T15:35:35;15.10;1.00
15947;DHT22;8072;52.554;7.966;2024-03-02T15:38:01;15.00;1.00
15947;DHT22;8072;52.554;7.966;2024-03-02T15:40:27;15.00;1.00
15947;DHT22;8072;52.554;7.966;2024-03-02T15:42:54;14.90;1.00
15947;DHT22;8072;52.554;7.966;2024-03-02T15:45:19;14.80;1.00
15947;DHT22;8072;52.554;7.966;2024-03-02T15:47:48;14.70;1.00
15947;DHT22;8072;52.554;7.966;2024-03-02T15:50:14;14.70;1.00
15947;DHT22;8072;52.554;7.966;2024-03-02T15:52:40;14.60;1.00
15947;DHT22;8072;52.554;7.966;2024-03-02T15:55:07;14.60;1.00
15947;DHT22;8072;52.554;7.966;2024-03-02T15:57:35;14.50;1.00
15947;DHT22;8072;52.554;7.966;2024-03-02T16:00:01;14.40;1.00
15947;DHT22;8072;52.554;7.966;2024-03-02T16:02:27;14.30;1.00
15947;DHT22;8072;52.554;7.966;2024-03-02T16:04:52;14.30;1.00
15947;DHT22;8072;52.554;7.966;2024-03-02T16:07:18;14.20;3.20
15947;DHT22;8072;52.554;7.966;2024-03-02T16:09:44;14.10;12.00